Time;durP1;ratioP1;P1;durP2;ratioP2;P2;SDS_P1;SDS_P2;PMS_P1;PMS_P2;Temp;Humidity;BMP_temperature;BMP_pressure;BME280_temperature;BME280_humidity;BME280_pressure;Samples;Min_cycle;Max_cycle;Signal;HPM_P1;HPM_P2
2022/12/16 00:01:15;;;;;;;0.00;0.00;;;;;;;-7.11;100.00;99846.16;5073485;28;20742;-72
2022/12/16 00:03:45;;;;;;;0.00;0.00;;;;;;;-7.09;100.00;99845.94;5073665;28;20443;-73
2022/12/16 00:06:10;;;;;;;0.00;0.00;;;;;;;-7.02;100.00;99849.38;5073565;28;20559;-72
2022/12/16 00:08:38;;;;;;;0.00;0.00;;;;;;;-6.89;100.00;99849.31;5073876;28;20999;-73
2022/12/16 00:11:03;;;;;;;1.20;1.20;;;;;;;-6.91;100.00;99840.75;5073602;28;20228;-73
2022/12/16 00:13:31;;;;;;;0.00;0.00;;;;;;;-6.88;100.00;99844.81;5073843;28;20985;-72
2022/12/16 00:15:56;;;;;;;0.00;0.00;;;;;;;-7.20;100.00;99850.91;5073720;28;20215;-74
2022/12/16 00:18:22;;;;;;;0.33;0.33;;;;;;;-6.98;100.00;99851.41;5073468;28;20424;-73
2022/12/16 00:20:51;;;;;;;2.83;1.40;;;;;;;-6.96;100.00;99853.84;5073477;28;20258;-73
2022/12/16 00:23:16;;;;;;;0.30;0.30;;;;;;;-7.01;100.00;99843.88;5073283;28;20162;-72
2022/12/16 00:25:44;;;;;;;0.00;0.00;;;;;;;-6.93;100.00;99854.25;5073229;28;20868;-72
2022/12/16 00:28:10;;;;;;;0.47;0.47;;;;;;;-6.92;100.00;99852.41;5073446;28;20171;-72
2022/12/16 00:30:36;;;;;;;3.80;2.23;;;;;;;-7.14;100.00;99851.06;5073283;28;20504;-72
2022/12/16 00:33:01;;;;;;;1.03;1.03;;;;;;;-7.30;100.00;99862.97;5073031;28;20500;-73
2022/12/16 00:35:27;;;;;;;0.50;0.50;;;;;;;-7.34;100.00;99861.75;5071882;28;20182;-73
2022/12/16 00:37:52;;;;;;;1.93;1.83;;;;;;;-7.31;100.00;99850.72;5073143;28;20167;-72
2022/12/16 00:40:18;;;;;;;0.53;0.50;;;;;;;-7.23;100.00;99856.63;5073164;28;20181;-73
2022/12/16 00:42:43;;;;;;;0.00;0.00;;;;;;;-7.29;100.00;99864.59;5072948;28;20209;-72
2022/12/16 00:45:09;;;;;;;0.00;0.00;;;;;;;-7.60;100.00;99858.16;5073061;28;20205;-73
2022/12/16 00:47:34;;;;;;;0.63;0.63;;;;;;;-7.51;100.00;99853.47;5071537;28;20220;-73
2022/12/16 00:50:00;;;;;;;0.50;0.50;;;;;;;-7.38;100.00;99860.53;5072975;28;20178;-73
2022/12/16 00:52:26;;;;;;;0.10;0.10;;;;;;;-7.28;100.00;99851.13;5072949;28;20526;-73
2022/12/16 00:54:51;;;;;;;0.47;0.47;;;;;;;-7.32;100.00;99857.88;5072761;28;20424;-74
2022/12/16 00:57:16;;;;;;;0.60;0.60;;;;;;;-7.42;100.00;99860.16;5072900;28;20177;-73
2022/12/16 00:59:41;;;;;;;0.00;0.00;;;;;;;-7.39;100.00;99846.44;5072396;28;20196;-74
2022/12/16 01:02:07;;;;;;;0.10;0.10;;;;;;;-7.29;100.00;99846.84;5072892;28;20179;-74
2022/12/16 01:04:32;;;;;;;0.23;0.23;;;;;;;-7.34;100.00;99844.00;5071952;28;20888;-74
2022/12/16 01:06:57;;;;;;;0.00;0.00;;;;;;;-7.32;100.00;99846.44;5072156;28;20198;-74
2022/12/16 01:09:23;;;;;;;0.00;0.00;;;;;;;-7.26;100.00;99853.56;5072761;28;20185;-72
2022/12/16 01:11:48;;;;;;;0.00;0.00;;;;;;;-7.16;100.00;99869.84;5072609;28;20618;-74
2022/12/16 01:14:13;;;;;;;0.93;0.57;;;;;;;-7.23;100.00;99859.28;5072278;28;20187;-73
2022/12/16 01:16:39;;;;;;;1.80;1.70;;;;;;;-7.39;100.00;99865.03;5072561;28;20267;-73
2022/12/16 01:19:04;;;;;;;0.00;0.00;;;;;;;-7.34;100.00;99865.22;5071251;28;20324;-73
2022/12/16 01:21:29;;;;;;;0.40;0.40;;;;;;;-7.26;100.00;99872.94;5072487;28;20253;-72
2022/12/16 01:23:55;;;;;;;0.00;0.00;;;;;;;-7.19;100.00;99878.25;5072255;28;20185;-73
2022/12/16 01:26:21;;;;;;;0.00;0.00;;;;;;;-7.15;100.00;99886.59;5072254;28;20423;-74
2022/12/16 01:28:47;;;;;;;3.13;2.83;;;;;;;-7.13;100.00;99885.34;5072263;28;20183;-73
2022/12/16 01:31:15;;;;;;;0.00;0.00;;;;;;;-7.20;100.00;99880.09;5072392;28;20486;-74
2022/12/16 01:33:40;;;;;;;0.00;0.00;;;;;;;-7.15;100.00;99889.25;5070542;28;20417;-73
2022/12/16 01:36:07;;;;;;;0.00;0.00;;;;;;;-7.09;100.00;99888.41;5072053;28;20420;-74
2022/12/16 01:38:33;;;;;;;0.00;0.00;;;;;;;-7.10;100.00;99894.72;5072056;28;20179;-73
2022/12/16 01:40:58;;;;;;;0.30;0.30;;;;;;;-6.99;100.00;99899.38;5071733;28;20412;-72
2022/12/16 01:43:31;;;;;;;0.00;0.00;;;;;;;-7.06;100.00;99896.78;5071681;28;20431;-72
2022/12/16 01:46:02;;;;;;;0.00;0.00;;;;;;;-7.20;100.00;99890.69;5071872;28;20685;-74
2022/12/16 01:48:42;;;;;;;0.10;0.10;;;;;;;-7.26;100.00;99888.88;5070655;28;20448;-74
2022/12/16 01:51:30;;;;;;;0.00;0.00;;;;;;;-7.29;100.00;99893.78;5071485;28;20427;-73
2022/12/16 01:54:02;;;;;;;0.00;0.00;;;;;;;-7.35;100.00;99884.81;5070196;28;20766;-73
2022/12/16 01:56:32;;;;;;;0.67;0.67;;;;;;;-7.24;100.00;99896.63;5071726;28;20432;-73
2022/12/16 01:58:58;;;;;;;0.00;0.00;;;;;;;-7.16;100.00;99901.69;5072052;28;20421;-73
2022/12/16 02:01:24;;;;;;;2.33;2.27;;;;;;;-7.37;100.00;99905.44;5071769;28;20428;-73
2022/12/16 02:03:53;;;;;;;1.70;1.63;;;;;;;-7.57;100.00;99905.47;5071522;28;20432;-73
2022/12/16 02:06:18;;;;;;;2.67;2.57;;;;;;;-7.79;100.00;99904.09;5071815;28;20967;-74
2022/12/16 02:08:44;;;;;;;0.80;0.80;;;;;;;-7.85;100.00;99895.09;5071876;28;20417;-73
2022/12/16 02:11:38;;;;;;;5.17;4.90;;;;;;;-7.84;100.00;99898.56;5070746;28;20178;-74
2022/12/16 02:14:12;;;;;;;0.00;0.00;;;;;;;-7.90;100.00;99899.41;5071652;28;20266;-73
2022/12/16 02:17:01;;;;;;;0.20;0.20;;;;;;;-7.77;100.00;99903.88;5071558;28;20936;-73
2022/12/16 02:19:55;;;;;;;0.00;0.00;;;;;;;-7.76;100.00;99900.22;5071714;28;20413;-73
2022/12/16 02:22:38;;;;;;;7.03;1.60;;;;;;;-7.80;100.00;99894.50;5071690;28;20409;-74
2022/12/16 02:25:52;;;;;;;0.00;0.00;;;;;;;-7.89;100.00;99895.72;5070322;28;20445;-73
2022/12/16 02:28:56;;;;;;;0.00;0.00;;;;;;;-7.83;100.00;99895.72;5067629;28;20516;-73
2022/12/16 02:31:33;;;;;;;0.27;0.27;;;;;;;-7.71;100.00;99892.44;5055334;28;20768;-73
2022/12/16 02:34:21;;;;;;;0.57;0.57;;;;;;;-7.81;100.00;99896.34;5071301;28;20408;-73
2022/12/16 02:36:59;;;;;;;2.20;2.00;;;;;;;-7.90;100.00;99897.56;5071319;28;20740;-74
2022/12/16 02:39:38;;;;;;;0.87;0.87;;;;;;;-7.94;100.00;99892.88;5071312;28;20696;-73
2022/12/16 02:42:20;;;;;;;0.00;0.00;;;;;;;-7.86;100.00;99893.47;5071355;28;20404;-74
2022/12/16 02:45:00;;;;;;;1.00;1.00;;;;;;;-7.90;100.00;99886.16;5069659;28;20420;-73
2022/12/16 02:47:27;;;;;;;0.10;0.10;;;;;;;-8.06;100.00;99889.22;5069944;28;20420;-73
2022/12/16 02:49:54;;;;;;;0.13;0.13;;;;;;;-8.14;100.00;99883.09;5070880;28;20452;-73
2022/12/16 02:52:29;;;;;;;2.73;2.63;;;;;;;-8.08;100.00;99889.41;5071223;28;20963;-74
2022/12/16 02:55:00;;;;;;;2.77;2.57;;;;;;;-7.99;100.00;99896.13;5070968;28;20925;-73
2022/12/16 02:57:57;;;;;;;0.23;0.23;;;;;;;-7.91;100.00;99893.28;5069793;28;20416;-74
2022/12/16 03:00:24;;;;;;;1.43;1.43;;;;;;;-8.04;100.00;99905.72;5071077;28;20409;-73
2022/12/16 03:03:01;;;;;;;0.10;0.10;;;;;;;-8.12;100.00;99898.78;5070826;28;20433;-73
2022/12/16 03:05:31;;;;;;;0.67;0.67;;;;;;;-8.14;100.00;99900.81;5070912;28;20464;-73
2022/12/16 03:08:01;;;;;;;1.80;1.70;;;;;;;-8.23;100.00;99894.09;5071181;28;20443;-74
2022/12/16 03:10:30;;;;;;;1.43;1.43;;;;;;;-8.33;100.00;99893.69;5070915;28;20432;-74
2022/12/16 03:12:58;;;;;;;0.77;0.77;;;;;;;-8.38;100.00;99891.69;5069318;28;20421;-73
2022/12/16 03:15:28;;;;;;;0.67;0.40;;;;;;;-8.37;100.00;99897.78;5071120;28;20417;-74
2022/12/16 03:17:56;;;;;;;0.00;0.00;;;;;;;-8.29;100.00;99893.06;5071055;28;20421;-73
2022/12/16 03:20:34;;;;;;;0.43;0.43;;;;;;;-8.29;100.00;99889.59;5071083;28;20846;-73
2022/12/16 03:23:05;;;;;;;0.10;0.10;;;;;;;-8.12;100.00;99891.63;5070904;28;20419;-75
2022/12/16 03:25:34;;;;;;;2.10;2.00;;;;;;;-8.16;100.00;99887.78;5070915;28;20444;-74
2022/12/16 03:28:26;;;;;;;0.60;0.60;;;;;;;-8.28;100.00;99891.22;5070232;28;20491;-74
2022/12/16 03:31:00;;;;;;;1.30;1.30;;;;;;;-8.41;100.00;99890.22;5070718;28;20546;-74
2022/12/16 03:33:44;;;;;;;0.87;0.87;;;;;;;-8.46;100.00;99889.22;5070500;28;20405;-74
2022/12/16 03:36:15;;;;;;;0.60;0.60;;;;;;;-8.45;100.00;99891.66;5069248;28;20483;-75
2022/12/16 03:38:43;;;;;;;0.63;0.63;;;;;;;-8.48;100.00;99881.47;5070678;28;20401;-74
2022/12/16 03:41:09;;;;;;;0.00;0.00;;;;;;;-8.43;100.00;99884.31;5070533;28;20420;-74
2022/12/16 03:43:36;;;;;;;0.10;0.10;;;;;;;-8.39;100.00;99879.41;5069102;28;20413;-74
2022/12/16 03:46:05;;;;;;;0.17;0.17;;;;;;;-8.35;100.00;99885.97;5070466;28;20344;-74
2022/12/16 03:48:32;;;;;;;0.10;0.10;;;;;;;-8.40;100.00;99881.25;5070652;28;20449;-73
2022/12/16 03:50:57;;;;;;;0.10;0.10;;;;;;;-8.42;100.00;99879.84;5070123;28;20428;-73
2022/12/16 03:53:25;;;;;;;0.10;0.10;;;;;;;-8.35;100.00;99883.31;5070282;28;20787;-73
2022/12/16 03:55:50;;;;;;;0.43;0.43;;;;;;;-8.30;100.00;99885.31;5070373;28;20177;-75
2022/12/16 03:58:16;;;;;;;0.00;0.00;;;;;;;-8.34;100.00;99892.09;5069212;28;20409;-73
2022/12/16 04:00:41;;;;;;;0.30;0.30;;;;;;;-8.42;100.00;99890.44;5070302;28;20250;-75
2022/12/16 04:03:06;;;;;;;0.00;0.00;;;;;;;-8.37;100.00;99888.00;5070336;28;20221;-74
2022/12/16 04:05:31;;;;;;;0.00;0.00;;;;;;;-8.37;100.00;99887.19;5074921;28;20209;-74
2022/12/16 04:07:57;;;;;;;0.00;0.00;;;;;;;-8.34;100.00;99889.44;5076684;28;20654;-73
2022/12/16 04:24:18;;;;;;;0.00;0.00;;;;;;;-8.45;100.00;99899.59;5070441;28;20178;-72
2022/12/16 04:24:19;;;;;;;0.20;0.20;;;;;;;-8.66;100.00;99915.66;5070138;28;20392;-74
2022/12/16 04:29:33;;;;;;;4.00;3.70;;;;;;;-8.23;100.00;99915.28;5070453;28;20466;-74
2022/12/16 04:31:59;;;;;;;1.97;1.83;;;;;;;-8.28;100.00;99923.81;5070234;28;20409;-73
2022/12/16 04:34:25;;;;;;;0.13;0.13;;;;;;;-8.33;100.00;99917.53;5069418;28;20470;-73
